sensor_id;sensor_type;location;lat;lon;timestamp;P1;durP1;ratioP1;P2;durP2;ratioP2
13641;SDS011;6894;52.196;9.904;2022-12-28T00:01:27;2.07;;;1.03;;
13641;SDS011;6894;52.196;9.904;2022-12-28T00:03:54;4.57;;;1.50;;
13641;SDS011;6894;52.196;9.904;2022-12-28T00:06:24;2.73;;;1.10;;
13641;SDS011;6894;52.196;9.904;2022-12-28T00:08:51;3.70;;;1.30;;
13641;SDS011;6894;52.196;9.904;2022-12-28T00:11:19;3.77;;;1.30;;
13641;SDS011;6894;52.196;9.904;2022-12-28T00:13:48;3.33;;;1.20;;
13641;SDS011;6894;52.196;9.904;2022-12-28T00:16:17;3.23;;;1.20;;
13641;SDS011;6894;52.196;9.904;2022-12-28T00:18:46;1.77;;;1.20;;
13641;SDS011;6894;52.196;9.904;2022-12-28T00:21:13;5.33;;;1.67;;
13641;SDS011;6894;52.196;9.904;2022-12-28T00:23:39;3.07;;;1.13;;
13641;SDS011;6894;52.196;9.904;2022-12-28T00:26:07;3.60;;;1.30;;
13641;SDS011;6894;52.196;9.904;2022-12-28T00:28:34;2.83;;;1.40;;
13641;SDS011;6894;52.196;9.904;2022-12-28T00:31:02;3.07;;;1.17;;
13641;SDS011;6894;52.196;9.904;2022-12-28T00:33:29;1.60;;;0.90;;
13641;SDS011;6894;52.196;9.904;2022-12-28T00:35:57;4.73;;;1.77;;
13641;SDS011;6894;52.196;9.904;2022-12-28T00:38:25;4.43;;;1.20;;
13641;SDS011;6894;52.196;9.904;2022-12-28T00:40:53;4.33;;;1.50;;
13641;SDS011;6894;52.196;9.904;2022-12-28T00:43:19;4.60;;;1.57;;
13641;SDS011;6894;52.196;9.904;2022-12-28T00:45:46;5.73;;;1.40;;
13641;SDS011;6894;52.196;9.904;2022-12-28T00:48:15;6.47;;;1.57;;
13641;SDS011;6894;52.196;9.904;2022-12-28T00:50:42;7.30;;;1.90;;
13641;SDS011;6894;52.196;9.904;2022-12-28T00:53:09;2.53;;;1.23;;
13641;SDS011;6894;52.196;9.904;2022-12-28T00:55:36;3.27;;;1.43;;
13641;SDS011;6894;52.196;9.904;2022-12-28T00:58:03;5.57;;;1.63;;
13641;SDS011;6894;52.196;9.904;2022-12-28T01:00:30;6.93;;;2.10;;
13641;SDS011;6894;52.196;9.904;2022-12-28T01:02:57;3.83;;;1.53;;
13641;SDS011;6894;52.196;9.904;2022-12-28T01:05:25;3.83;;;1.30;;
13641;SDS011;6894;52.196;9.904;2022-12-28T01:07:52;2.83;;;1.43;;
13641;SDS011;6894;52.196;9.904;2022-12-28T01:10:19;2.00;;;1.50;;
13641;SDS011;6894;52.196;9.904;2022-12-28T01:12:46;5.67;;;1.80;;
13641;SDS011;6894;52.196;9.904;2022-12-28T01:15:12;3.23;;;1.70;;
13641;SDS011;6894;52.196;9.904;2022-12-28T01:17:39;3.37;;;1.73;;
13641;SDS011;6894;52.196;9.904;2022-12-28T01:20:06;3.63;;;2.03;;
13641;SDS011;6894;52.196;9.904;2022-12-28T01:22:35;4.03;;;1.67;;
13641;SDS011;6894;52.196;9.904;2022-12-28T01:25:02;6.43;;;1.93;;
13641;SDS011;6894;52.196;9.904;2022-12-28T01:27:29;3.47;;;1.63;;
13641;SDS011;6894;52.196;9.904;2022-12-28T01:29:55;3.53;;;1.77;;
13641;SDS011;6894;52.196;9.904;2022-12-28T01:32:22;7.13;;;2.37;;
13641;SDS011;6894;52.196;9.904;2022-12-28T01:34:49;5.73;;;1.63;;
13641;SDS011;6894;52.196;9.904;2022-12-28T01:37:15;5.70;;;1.53;;
13641;SDS011;6894;52.196;9.904;2022-12-28T01:39:43;6.80;;;1.83;;
13641;SDS011;6894;52.196;9.904;2022-12-28T01:42:13;3.10;;;1.50;;
13641;SDS011;6894;52.196;9.904;2022-12-28T01:44:42;3.47;;;1.60;;
13641;SDS011;6894;52.196;9.904;2022-12-28T01:47:14;3.93;;;1.50;;
13641;SDS011;6894;52.196;9.904;2022-12-28T01:49:48;3.97;;;1.47;;
13641;SDS011;6894;52.196;9.904;2022-12-28T01:52:19;2.33;;;1.40;;
13641;SDS011;6894;52.196;9.904;2022-12-28T01:54:51;2.67;;;1.37;;
13641;SDS011;6894;52.196;9.904;2022-12-28T01:57:22;3.07;;;1.40;;
13641;SDS011;6894;52.196;9.904;2022-12-28T01:59:52;4.50;;;1.53;;
13641;SDS011;6894;52.196;9.904;2022-12-28T02:02:21;2.07;;;1.20;;
13641;SDS011;6894;52.196;9.904;2022-12-28T02:04:48;3.77;;;1.03;;
13641;SDS011;6894;52.196;9.904;2022-12-28T02:07:17;3.67;;;1.37;;
13641;SDS011;6894;52.196;9.904;2022-12-28T02:09:53;3.13;;;1.73;;
13641;SDS011;6894;52.196;9.904;2022-12-28T02:12:20;4.70;;;1.43;;
13641;SDS011;6894;52.196;9.904;2022-12-28T02:14:47;7.13;;;1.40;;
13641;SDS011;6894;52.196;9.904;2022-12-28T02:17:14;3.03;;;1.43;;
13641;SDS011;6894;52.196;9.904;2022-12-28T02:19:42;3.37;;;1.23;;
13641;SDS011;6894;52.196;9.904;2022-12-28T02:22:16;12.00;;;1.90;;
13641;SDS011;6894;52.196;9.904;2022-12-28T02:25:18;3.03;;;1.33;;
13641;SDS011;6894;52.196;9.904;2022-12-28T02:28:10;3.40;;;1.57;;
13641;SDS011;6894;52.196;9.904;2022-12-28T02:30:52;2.93;;;1.10;;
13641;SDS011;6894;52.196;9.904;2022-12-28T02:33:23;5.40;;;2.03;;
13641;SDS011;6894;52.196;9.904;2022-12-28T02:35:56;3.40;;;1.30;;
13641;SDS011;6894;52.196;9.904;2022-12-28T02:38:29;2.83;;;1.10;;
13641;SDS011;6894;52.196;9.904;2022-12-28T02:41:02;4.40;;;1.50;;
13641;SDS011;6894;52.196;9.904;2022-12-28T02:43:32;8.87;;;1.80;;
13641;SDS011;6894;52.196;9.904;2022-12-28T02:46:08;1.40;;;1.30;;
13641;SDS011;6894;52.196;9.904;2022-12-28T02:49:15;2.87;;;1.60;;
13641;SDS011;6894;52.196;9.904;2022-12-28T02:52:04;4.27;;;1.40;;
13641;SDS011;6894;52.196;9.904;2022-12-28T02:54:45;3.03;;;2.20;;
13641;SDS011;6894;52.196;9.904;2022-12-28T02:58:01;3.23;;;1.50;;
13641;SDS011;6894;52.196;9.904;2022-12-28T03:00:54;5.10;;;1.87;;
13641;SDS011;6894;52.196;9.904;2022-12-28T03:03:32;4.03;;;1.90;;
13641;SDS011;6894;52.196;9.904;2022-12-28T03:06:11;3.10;;;1.60;;
13641;SDS011;6894;52.196;9.904;2022-12-28T03:09:00;2.67;;;1.80;;
13641;SDS011;6894;52.196;9.904;2022-12-28T03:11:31;4.33;;;2.03;;
13641;SDS011;6894;52.196;9.904;2022-12-28T03:14:04;2.70;;;1.83;;
13641;SDS011;6894;52.196;9.904;2022-12-28T03:19:26;5.63;;;2.00;;
13641;SDS011;6894;52.196;9.904;2022-12-28T03:22:13;3.90;;;1.80;;
13641;SDS011;6894;52.196;9.904;2022-12-28T03:24:57;5.13;;;2.20;;
13641;SDS011;6894;52.196;9.904;2022-12-28T03:27:46;3.33;;;1.70;;
13641;SDS011;6894;52.196;9.904;2022-12-28T03:30:32;3.30;;;1.90;;
13641;SDS011;6894;52.196;9.904;2022-12-28T03:33:19;4.93;;;2.33;;
13641;SDS011;6894;52.196;9.904;2022-12-28T03:35:49;4.37;;;2.30;;
13641;SDS011;6894;52.196;9.904;2022-12-28T03:38:23;4.73;;;2.20;;
13641;SDS011;6894;52.196;9.904;2022-12-28T03:40:56;3.20;;;1.80;;
13641;SDS011;6894;52.196;9.904;2022-12-28T03:43:28;5.00;;;2.23;;
13641;SDS011;6894;52.196;9.904;2022-12-28T03:46:06;4.43;;;1.80;;
13641;SDS011;6894;52.196;9.904;2022-12-28T03:48:38;4.13;;;1.90;;
13641;SDS011;6894;52.196;9.904;2022-12-28T03:51:07;3.97;;;1.83;;
13641;SDS011;6894;52.196;9.904;2022-12-28T03:53:36;2.47;;;2.00;;
13641;SDS011;6894;52.196;9.904;2022-12-28T03:56:06;3.87;;;1.87;;
13641;SDS011;6894;52.196;9.904;2022-12-28T03:58:34;4.90;;;1.73;;
13641;SDS011;6894;52.196;9.904;2022-12-28T04:01:01;2.77;;;1.50;;
13641;SDS011;6894;52.196;9.904;2022-12-28T04:03:27;3.50;;;1.90;;
13641;SDS011;6894;52.196;9.904;2022-12-28T04:05:54;5.27;;;1.60;;
13641;SDS011;6894;52.196;9.904;2022-12-28T04:08:22;4.60;;;1.83;;
13641;SDS011;6894;52.196;9.904;2022-12-28T04:10:49;2.87;;;1.60;;
13641;SDS011;6894;52.196;9.904;2022-12-28T04:13:16;2.17;;;1.70;;
13641;SDS011;6894;52.196;9.904;2022-12-28T04:15:42;5.77;;;1.77;;
13641;SDS011;6894;52.196;9.904;2022-12-28T04:18:09;3.70;;;1.90;;
13641;SDS011;6894;52.196;9.904;2022-12-28T04:20:36;5.00;;;1.60;;
13641;SDS011;6894;52.196;9.904;2022-12-28T04:23:02;4.93;;;1.97;;
13641;SDS011;6894;52.196;9.904;2022-12-28T04:25:30;3.13;;;1.80;;
13641;SDS011;6894;52.196;9.904;2022-12-28T04:27:57;3.67;;;1.97;;
13641;SDS011;6894;52.196;9.904;2022-12-28T04:30:24;3.00;;;1.83;;
13641;SDS011;6894;52.196;9.904;2022-12-28T04:32:50;4.00;;;1.80;;
13641;SDS011;6894;52.196;9.904;2022-12-28T04:35:17;3.30;;;1.50;;
13641;SDS011;6894;52.196;9.904;2022-12-28T04:37:44;3.37;;;1.43;;
13641;SDS011;6894;52.196;9.904;2022-12-28T04:40:11;1.70;;;1.20;;
13641;SDS011;6894;52.196;9.904;2022-12-28T04:42:39;5.33;;;1.67;;
13641;SDS011;6894;52.196;9.904;2022-12-28T04:45:06;3.47;;;1.83;;
13641;SDS011;6894;52.196;9.904;2022-12-28T04:47:33;3.43;;;1.33;;
13641;SDS011;6894;52.196;9.904;2022-12-28T04:50:00;3.50;;;1.67;;
13641;SDS011;6894;52.196;9.904;2022-12-28T04:52:27;2.67;;;1.60;;
13641;SDS011;6894;52.196;9.904;2022-12-28T04:54:53;4.77;;;2.30;;
13641;SDS011;6894;52.196;9.904;2022-12-28T04:57:20;4.47;;;1.20;;
13641;SDS011;6894;52.196;9.904;2022-12-28T04:59:48;2.63;;;1.40;;
13641;SDS011;6894;52.196;9.904;2022-12-28T05:02:15;3.70;;;1.63;;
13641;SDS011;6894;52.196;9.904;2022-12-28T05:04:41;2.27;;;1.20;;
13641;SDS011;6894;52.196;9.904;2022-12-28T05:07:08;3.30;;;1.70;;
13641;SDS011;6894;52.196;9.904;2022-12-28T05:09:35;1.87;;;1.37;;
13641;SDS011;6894;52.196;9.904;2022-12-28T05:12:02;3.33;;;1.50;;
13641;SDS011;6894;52.196;9.904;2022-12-28T05:14:28;3.50;;;1.40;;
13641;SDS011;6894;52.196;9.904;2022-12-28T05:16:56;4.40;;;1.50;;
13641;SDS011;6894;52.196;9.904;2022-12-28T05:19:23;3.03;;;1.60;;
13641;SDS011;6894;52.196;9.904;2022-12-28T05:21:50;1.33;;;1.23;;
13641;SDS011;6894;52.196;9.904;2022-12-28T05:24:16;4.47;;;1.80;;
13641;SDS011;6894;52.196;9.904;2022-12-28T05:26:44;2.97;;;1.33;;
13641;SDS011;6894;52.196;9.904;2022-12-28T05:29:11;2.80;;;1.40;;
13641;SDS011;6894;52.196;9.904;2022-12-28T05:31:38;3.40;;;1.60;;
13641;SDS011;6894;52.196;9.904;2022-12-28T05:34:06;3.57;;;1.43;;
13641;SDS011;6894;52.196;9.904;2022-12-28T05:36:32;3.37;;;1.73;;
13641;SDS011;6894;52.196;9.904;2022-12-28T05:39:02;1.60;;;1.40;;
13641;SDS011;6894;52.196;9.904;2022-12-28T05:41:29;2.47;;;1.30;;
13641;SDS011;6894;52.196;9.904;2022-12-28T05:43:57;3.17;;;1.60;;
13641;SDS011;6894;52.196;9.904;2022-12-28T05:46:25;2.10;;;1.50;;
13641;SDS011;6894;52.196;9.904;2022-12-28T05:48:53;2.30;;;1.50;;
13641;SDS011;6894;52.196;9.904;2022-12-28T05:51:21;1.50;;;1.40;;
13641;SDS011;6894;52.196;9.904;2022-12-28T05:53:50;3.40;;;1.40;;
13641;SDS011;6894;52.196;9.904;2022-12-28T05:56:17;5.33;;;2.20;;
13641;SDS011;6894;52.196;9.904;2022-12-28T05:58:45;2.17;;;1.10;;
13641;SDS011;6894;52.196;9.904;2022-12-28T06:01:19;2.73;;;1.50;;
13641;SDS011;6894;52.196;9.904;2022-12-28T06:03:51;2.40;;;1.63;;
13641;SDS011;6894;52.196;9.904;2022-12-28T06:06:19;1.97;;;1.40;;
13641;SDS011;6894;52.196;9.904;2022-12-28T06:08:48;3.07;;;1.37;;
13641;SDS011;6894;52.196;9.904;2022-12-28T06:11:15;2.03;;;1.10;;
13641;SDS011;6894;52.196;9.904;2022-12-28T06:13:44;2.13;;;1.43;;
13641;SDS011;6894;52.196;9.904;2022-12-28T06:16:12;4.93;;;1.67;;
13641;SDS011;6894;52.196;9.904;2022-12-28T06:18:40;2.83;;;1.60;;
13641;SDS011;6894;52.196;9.904;2022-12-28T06:21:09;3.17;;;1.50;;
13641;SDS011;6894;52.196;9.904;2022-12-28T06:23:38;1.90;;;1.43;;
13641;SDS011;6894;52.196;9.904;2022-12-28T06:26:05;2.63;;;1.43;;
13641;SDS011;6894;52.196;9.904;2022-12-28T06:28:32;1.10;;;1.00;;
13641;SDS011;6894;52.196;9.904;2022-12-28T06:31:01;3.40;;;1.40;;
13641;SDS011;6894;52.196;9.904;2022-12-28T06:33:29;2.30;;;1.30;;
13641;SDS011;6894;52.196;9.904;2022-12-28T06:35:56;2.17;;;1.40;;
13641;SDS011;6894;52.196;9.904;2022-12-28T06:38:22;2.83;;;1.43;;
13641;SDS011;6894;52.196;9.904;2022-12-28T06:40:54;1.87;;;1.27;;
13641;SDS011;6894;52.196;9.904;2022-12-28T06:43:29;1.93;;;1.07;;
13641;SDS011;6894;52.196;9.904;2022-12-28T06:45:56;3.07;;;1.43;;
13641;SDS011;6894;52.196;9.904;2022-12-28T06:48:23;2.03;;;1.20;;
13641;SDS011;6894;52.196;9.904;2022-12-28T06:50:54;2.90;;;1.30;;
13641;SDS011;6894;52.196;9.904;2022-12-28T06:53:21;1.77;;;1.00;;
13641;SDS011;6894;52.196;9.904;2022-12-28T06:55:52;1.67;;;1.20;;
13641;SDS011;6894;52.196;9.904;2022-12-28T06:58:21;1.93;;;1.27;;
13641;SDS011;6894;52.196;9.904;2022-12-28T07:00:48;1.07;;;0.90;;
13641;SDS011;6894;52.196;9.904;2022-12-28T07:03:16;1.93;;;1.20;;
13641;SDS011;6894;52.196;9.904;2022-12-28T07:05:42;1.57;;;1.23;;
13641;SDS011;6894;52.196;9.904;2022-12-28T07:08:09;4.03;;;1.00;;
13641;SDS011;6894;52.196;9.904;2022-12-28T07:10:36;2.73;;;1.43;;
13641;SDS011;6894;52.196;9.904;2022-12-28T07:13:04;2.43;;;1.20;;
13641;SDS011;6894;52.196;9.904;2022-12-28T07:15:33;2.67;;;1.20;;
13641;SDS011;6894;52.196;9.904;2022-12-28T07:18:00;1.17;;;0.90;;
13641;SDS011;6894;52.196;9.904;2022-12-28T07:20:27;2.67;;;1.40;;
13641;SDS011;6894;52.196;9.904;2022-12-28T07:22:53;2.20;;;1.47;;
13641;SDS011;6894;52.196;9.904;2022-12-28T07:25:20;1.93;;;1.50;;
13641;SDS011;6894;52.196;9.904;2022-12-28T07:27:47;2.03;;;1.47;;
13641;SDS011;6894;52.196;9.904;2022-12-28T07:30:15;1.57;;;1.40;;
13641;SDS011;6894;52.196;9.904;2022-12-28T07:32:42;2.00;;;1.37;;
13641;SDS011;6894;52.196;9.904;2022-12-28T07:35:09;2.07;;;1.17;;
13641;SDS011;6894;52.196;9.904;2022-12-28T07:37:35;2.57;;;1.60;;
13641;SDS011;6894;52.196;9.904;2022-12-28T07:40:02;2.87;;;1.20;;
13641;SDS011;6894;52.196;9.904;2022-12-28T07:42:29;3.10;;;1.63;;
13641;SDS011;6894;52.196;9.904;2022-12-28T07:44:56;1.87;;;1.50;;
13641;SDS011;6894;52.196;9.904;2022-12-28T07:47:24;2.10;;;0.93;;
13641;SDS011;6894;52.196;9.904;2022-12-28T07:49:51;2.87;;;1.40;;
13641;SDS011;6894;52.196;9.904;2022-12-28T07:52:17;2.37;;;1.40;;
13641;SDS011;6894;52.196;9.904;2022-12-28T07:54:47;2.77;;;2.03;;
13641;SDS011;6894;52.196;9.904;2022-12-28T07:57:14;2.07;;;1.40;;
13641;SDS011;6894;52.196;9.904;2022-12-28T07:59:41;1.20;;;1.10;;
13641;SDS011;6894;52.196;9.904;2022-12-28T08:02:07;1.37;;;1.10;;
13641;SDS011;6894;52.196;9.904;2022-12-28T08:04:36;1.83;;;1.10;;
13641;SDS011;6894;52.196;9.904;2022-12-28T08:07:02;2.57;;;1.27;;
13641;SDS011;6894;52.196;9.904;2022-12-28T08:09:29;1.50;;;1.37;;
13641;SDS011;6894;52.196;9.904;2022-12-28T08:11:56;2.20;;;1.10;;
13641;SDS011;6894;52.196;9.904;2022-12-28T08:14:22;1.63;;;1.20;;
13641;SDS011;6894;52.196;9.904;2022-12-28T08:16:49;1.70;;;1.20;;
13641;SDS011;6894;52.196;9.904;2022-12-28T08:19:16;4.03;;;1.27;;
13641;SDS011;6894;52.196;9.904;2022-12-28T08:21:44;1.30;;;0.90;;
13641;SDS011;6894;52.196;9.904;2022-12-28T08:24:12;2.13;;;1.10;;
13641;SDS011;6894;52.196;9.904;2022-12-28T08:26:39;1.23;;;1.00;;
13641;SDS011;6894;52.196;9.904;2022-12-28T08:29:08;1.70;;;1.10;;
13641;SDS011;6894;52.196;9.904;2022-12-28T08:31:37;2.37;;;1.17;;
13641;SDS011;6894;52.196;9.904;2022-12-28T08:34:06;2.43;;;1.33;;
13641;SDS011;6894;52.196;9.904;2022-12-28T08:36:34;1.53;;;1.10;;
13641;SDS011;6894;52.196;9.904;2022-12-28T08:39:02;1.50;;;1.07;;
13641;SDS011;6894;52.196;9.904;2022-12-28T08:41:30;2.20;;;1.00;;
13641;SDS011;6894;52.196;9.904;2022-12-28T08:43:57;0.97;;;0.90;;
13641;SDS011;6894;52.196;9.904;2022-12-28T08:46:25;1.77;;;0.97;;
13641;SDS011;6894;52.196;9.904;2022-12-28T08:48:53;1.13;;;0.80;;
13641;SDS011;6894;52.196;9.904;2022-12-28T08:51:21;3.37;;;1.40;;
13641;SDS011;6894;52.196;9.904;2022-12-28T08:53:49;1.30;;;1.20;;
13641;SDS011;6894;52.196;9.904;2022-12-28T08:56:18;1.20;;;1.10;;
13641;SDS011;6894;52.196;9.904;2022-12-28T08:58:46;1.37;;;0.93;;
13641;SDS011;6894;52.196;9.904;2022-12-28T09:01:14;1.50;;;1.00;;
13641;SDS011;6894;52.196;9.904;2022-12-28T09:03:42;1.90;;;1.00;;
13641;SDS011;6894;52.196;9.904;2022-12-28T09:06:11;3.90;;;1.20;;
13641;SDS011;6894;52.196;9.904;2022-12-28T09:08:39;3.10;;;1.27;;
13641;SDS011;6894;52.196;9.904;2022-12-28T09:11:07;2.07;;;1.47;;
13641;SDS011;6894;52.196;9.904;2022-12-28T09:13:36;1.60;;;1.07;;
13641;SDS011;6894;52.196;9.904;2022-12-28T09:16:04;1.70;;;1.53;;
13641;SDS011;6894;52.196;9.904;2022-12-28T09:18:32;1.87;;;1.00;;
13641;SDS011;6894;52.196;9.904;2022-12-28T09:21:03;1.70;;;1.30;;
13641;SDS011;6894;52.196;9.904;2022-12-28T09:23:30;1.00;;;0.90;;
13641;SDS011;6894;52.196;9.904;2022-12-28T09:26:01;1.30;;;1.20;;
13641;SDS011;6894;52.196;9.904;2022-12-28T09:28:29;1.50;;;1.00;;
13641;SDS011;6894;52.196;9.904;2022-12-28T09:30:57;1.20;;;1.10;;
13641;SDS011;6894;52.196;9.904;2022-12-28T09:33:26;3.30;;;1.10;;
13641;SDS011;6894;52.196;9.904;2022-12-28T09:36:10;1.40;;;1.10;;
13641;SDS011;6894;52.196;9.904;2022-12-28T09:38:37;1.10;;;0.80;;
13641;SDS011;6894;52.196;9.904;2022-12-28T09:41:09;1.70;;;0.90;;
13641;SDS011;6894;52.196;9.904;2022-12-28T09:43:38;1.17;;;1.00;;
13641;SDS011;6894;52.196;9.904;2022-12-28T09:46:08;1.10;;;1.00;;
13641;SDS011;6894;52.196;9.904;2022-12-28T09:48:36;1.57;;;0.80;;
13641;SDS011;6894;52.196;9.904;2022-12-28T09:51:05;1.47;;;1.00;;
13641;SDS011;6894;52.196;9.904;2022-12-28T09:53:32;1.40;;;0.80;;
13641;SDS011;6894;52.196;9.904;2022-12-28T09:56:01;1.10;;;1.00;;
13641;SDS011;6894;52.196;9.904;2022-12-28T09:58:31;1.63;;;0.90;;
13641;SDS011;6894;52.196;9.904;2022-12-28T10:01:02;2.17;;;1.30;;
13641;SDS011;6894;52.196;9.904;2022-12-28T10:03:36;1.60;;;0.90;;
13641;SDS011;6894;52.196;9.904;2022-12-28T10:06:07;1.97;;;0.80;;
13641;SDS011;6894;52.196;9.904;2022-12-28T10:08:39;0.87;;;0.70;;
13641;SDS011;6894;52.196;9.904;2022-12-28T10:11:10;2.37;;;1.00;;
13641;SDS011;6894;52.196;9.904;2022-12-28T10:13:42;0.50;;;0.50;;
13641;SDS011;6894;52.196;9.904;2022-12-28T10:16:10;1.83;;;0.80;;
13641;SDS011;6894;52.196;9.904;2022-12-28T10:18:44;0.60;;;0.60;;
13641;SDS011;6894;52.196;9.904;2022-12-28T10:21:12;1.60;;;0.80;;
13641;SDS011;6894;52.196;9.904;2022-12-28T10:23:39;1.67;;;0.90;;
13641;SDS011;6894;52.196;9.904;2022-12-28T10:26:08;0.70;;;0.70;;
13641;SDS011;6894;52.196;9.904;2022-12-28T10:28:43;1.23;;;0.73;;
13641;SDS011;6894;52.196;9.904;2022-12-28T10:31:13;1.10;;;0.80;;
13641;SDS011;6894;52.196;9.904;2022-12-28T10:33:41;0.73;;;0.50;;
13641;SDS011;6894;52.196;9.904;2022-12-28T10:36:15;0.87;;;0.60;;
13641;SDS011;6894;52.196;9.904;2022-12-28T10:38:47;1.07;;;0.67;;
13641;SDS011;6894;52.196;9.904;2022-12-28T10:41:15;0.60;;;0.57;;
13641;SDS011;6894;52.196;9.904;2022-12-28T10:43:44;1.43;;;0.50;;
13641;SDS011;6894;52.196;9.904;2022-12-28T10:46:15;0.83;;;0.60;;
13641;SDS011;6894;52.196;9.904;2022-12-28T10:48:46;0.73;;;0.50;;
13641;SDS011;6894;52.196;9.904;2022-12-28T10:51:17;3.67;;;1.50;;
13641;SDS011;6894;52.196;9.904;2022-12-28T10:53:45;4.03;;;1.70;;
13641;SDS011;6894;52.196;9.904;2022-12-28T10:56:17;4.43;;;2.30;;
13641;SDS011;6894;52.196;9.904;2022-12-28T10:58:47;1.97;;;1.23;;
13641;SDS011;6894;52.196;9.904;2022-12-28T11:01:16;0.40;;;0.40;;
13641;SDS011;6894;52.196;9.904;2022-12-28T11:03:56;0.40;;;0.40;;
13641;SDS011;6894;52.196;9.904;2022-12-28T11:06:25;0.83;;;0.60;;
13641;SDS011;6894;52.196;9.904;2022-12-28T11:09:01;0.97;;;0.50;;
13641;SDS011;6894;52.196;9.904;2022-12-28T11:11:30;0.43;;;0.40;;
13641;SDS011;6894;52.196;9.904;2022-12-28T11:13:58;0.50;;;0.50;;
13641;SDS011;6894;52.196;9.904;2022-12-28T11:16:28;0.60;;;0.50;;
13641;SDS011;6894;52.196;9.904;2022-12-28T11:19:00;0.57;;;0.40;;
13641;SDS011;6894;52.196;9.904;2022-12-28T11:21:27;0.47;;;0.47;;
13641;SDS011;6894;52.196;9.904;2022-12-28T11:23:54;0.50;;;0.50;;
13641;SDS011;6894;52.196;9.904;2022-12-28T11:26:21;0.60;;;0.50;;
13641;SDS011;6894;52.196;9.904;2022-12-28T11:28:48;0.97;;;0.40;;
13641;SDS011;6894;52.196;9.904;2022-12-28T11:31:19;1.13;;;0.40;;
13641;SDS011;6894;52.196;9.904;2022-12-28T11:33:49;1.53;;;0.53;;
13641;SDS011;6894;52.196;9.904;2022-12-28T11:36:20;0.87;;;0.60;;
13641;SDS011;6894;52.196;9.904;2022-12-28T11:38:49;1.30;;;0.50;;
13641;SDS011;6894;52.196;9.904;2022-12-28T11:44:07;0.50;;;0.47;;
13641;SDS011;6894;52.196;9.904;2022-12-28T11:46:55;0.63;;;0.37;;
13641;SDS011;6894;52.196;9.904;2022-12-28T11:49:27;0.50;;;0.50;;
13641;SDS011;6894;52.196;9.904;2022-12-28T11:55:28;1.53;;;0.47;;
13641;SDS011;6894;52.196;9.904;2022-12-28T11:58:02;1.37;;;0.50;;
13641;SDS011;6894;52.196;9.904;2022-12-28T12:01:00;0.50;;;0.30;;
13641;SDS011;6894;52.196;9.904;2022-12-28T12:09:37;0.40;;;0.40;;
13641;SDS011;6894;52.196;9.904;2022-12-28T12:15:01;2.37;;;0.70;;
13641;SDS011;6894;52.196;9.904;2022-12-28T12:17:38;0.87;;;0.50;;
13641;SDS011;6894;52.196;9.904;2022-12-28T12:20:14;1.23;;;0.60;;
13641;SDS011;6894;52.196;9.904;2022-12-28T12:22:47;0.60;;;0.60;;
13641;SDS011;6894;52.196;9.904;2022-12-28T12:25:17;2.87;;;0.90;;
13641;SDS011;6894;52.196;9.904;2022-12-28T12:27:52;0.50;;;0.50;;
13641;SDS011;6894;52.196;9.904;2022-12-28T12:30:22;1.23;;;0.90;;
13641;SDS011;6894;52.196;9.904;2022-12-28T12:32:51;1.30;;;0.60;;
13641;SDS011;6894;52.196;9.904;2022-12-28T12:35:21;0.87;;;0.73;;
13641;SDS011;6894;52.196;9.904;2022-12-28T12:37:50;1.97;;;0.80;;
13641;SDS011;6894;52.196;9.904;2022-12-28T12:43:25;0.97;;;0.87;;
13641;SDS011;6894;52.196;9.904;2022-12-28T12:46:10;0.80;;;0.70;;
13641;SDS011;6894;52.196;9.904;2022-12-28T12:48:57;1.20;;;0.60;;
13641;SDS011;6894;52.196;9.904;2022-12-28T12:51:40;1.30;;;0.83;;
13641;SDS011;6894;52.196;9.904;2022-12-28T12:54:18;3.97;;;1.00;;
13641;SDS011;6894;52.196;9.904;2022-12-28T12:56:55;4.47;;;1.00;;
13641;SDS011;6894;52.196;9.904;2022-12-28T12:59:32;1.57;;;0.80;;
13641;SDS011;6894;52.196;9.904;2022-12-28T13:02:26;1.17;;;0.77;;
13641;SDS011;6894;52.196;9.904;2022-12-28T13:05:08;0.60;;;0.60;;
13641;SDS011;6894;52.196;9.904;2022-12-28T13:07:43;1.77;;;0.70;;
13641;SDS011;6894;52.196;9.904;2022-12-28T13:10:12;1.67;;;0.60;;
13641;SDS011;6894;52.196;9.904;2022-12-28T13:12:45;1.40;;;0.73;;
13641;SDS011;6894;52.196;9.904;2022-12-28T13:15:16;1.90;;;0.40;;
13641;SDS011;6894;52.196;9.904;2022-12-28T13:17:57;0.77;;;0.60;;
13641;SDS011;6894;52.196;9.904;2022-12-28T13:20:24;1.23;;;0.50;;
13641;SDS011;6894;52.196;9.904;2022-12-28T13:22:51;1.70;;;0.60;;
13641;SDS011;6894;52.196;9.904;2022-12-28T13:25:22;0.60;;;0.57;;
13641;SDS011;6894;52.196;9.904;2022-12-28T13:27:53;0.93;;;0.60;;
13641;SDS011;6894;52.196;9.904;2022-12-28T13:30:22;0.63;;;0.40;;
13641;SDS011;6894;52.196;9.904;2022-12-28T13:32:51;0.60;;;0.33;;
13641;SDS011;6894;52.196;9.904;2022-12-28T13:35:20;1.67;;;0.60;;
13641;SDS011;6894;52.196;9.904;2022-12-28T13:38:01;0.97;;;0.63;;
13641;SDS011;6894;52.196;9.904;2022-12-28T13:40:29;1.27;;;0.90;;
13641;SDS011;6894;52.196;9.904;2022-12-28T13:43:05;1.47;;;0.50;;
13641;SDS011;6894;52.196;9.904;2022-12-28T13:45:56;0.80;;;0.67;;
13641;SDS011;6894;52.196;9.904;2022-12-28T13:48:31;7.37;;;0.80;;
13641;SDS011;6894;52.196;9.904;2022-12-28T13:51:07;0.77;;;0.60;;
13641;SDS011;6894;52.196;9.904;2022-12-28T13:53:35;1.07;;;0.60;;
13641;SDS011;6894;52.196;9.904;2022-12-28T13:56:07;1.17;;;0.47;;
13641;SDS011;6894;52.196;9.904;2022-12-28T13:58:44;0.60;;;0.60;;
13641;SDS011;6894;52.196;9.904;2022-12-28T14:01:17;1.03;;;0.43;;
13641;SDS011;6894;52.196;9.904;2022-12-28T14:03:47;0.50;;;0.47;;
13641;SDS011;6894;52.196;9.904;2022-12-28T14:06:15;0.73;;;0.60;;
13641;SDS011;6894;52.196;9.904;2022-12-28T14:08:44;1.33;;;0.70;;
13641;SDS011;6894;52.196;9.904;2022-12-28T14:11:13;1.00;;;0.60;;
13641;SDS011;6894;52.196;9.904;2022-12-28T14:13:41;1.60;;;0.97;;
13641;SDS011;6894;52.196;9.904;2022-12-28T14:16:08;0.77;;;0.50;;
13641;SDS011;6894;52.196;9.904;2022-12-28T14:18:37;0.60;;;0.40;;
13641;SDS011;6894;52.196;9.904;2022-12-28T14:21:04;0.57;;;0.40;;
13641;SDS011;6894;52.196;9.904;2022-12-28T14:23:32;1.03;;;0.60;;
13641;SDS011;6894;52.196;9.904;2022-12-28T14:26:00;0.60;;;0.60;;
13641;SDS011;6894;52.196;9.904;2022-12-28T14:28:29;1.20;;;0.80;;
13641;SDS011;6894;52.196;9.904;2022-12-28T14:31:00;0.97;;;0.50;;
13641;SDS011;6894;52.196;9.904;2022-12-28T14:33:28;0.60;;;0.50;;
13641;SDS011;6894;52.196;9.904;2022-12-28T14:36:02;0.90;;;0.50;;
13641;SDS011;6894;52.196;9.904;2022-12-28T14:38:33;1.03;;;0.70;;
13641;SDS011;6894;52.196;9.904;2022-12-28T14:41:03;0.63;;;0.50;;
13641;SDS011;6894;52.196;9.904;2022-12-28T14:43:31;0.73;;;0.60;;
13641;SDS011;6894;52.196;9.904;2022-12-28T14:46:13;0.97;;;0.50;;
13641;SDS011;6894;52.196;9.904;2022-12-28T14:48:41;1.07;;;0.70;;
13641;SDS011;6894;52.196;9.904;2022-12-28T14:51:27;0.83;;;0.50;;
13641;SDS011;6894;52.196;9.904;2022-12-28T14:54:17;1.97;;;0.80;;
13641;SDS011;6894;52.196;9.904;2022-12-28T14:56:47;0.67;;;0.53;;
13641;SDS011;6894;52.196;9.904;2022-12-28T14:59:18;0.97;;;0.70;;
13641;SDS011;6894;52.196;9.904;2022-12-28T15:01:50;1.93;;;0.60;;
13641;SDS011;6894;52.196;9.904;2022-12-28T15:04:24;0.50;;;0.40;;
13641;SDS011;6894;52.196;9.904;2022-12-28T15:07:01;0.97;;;0.50;;
13641;SDS011;6894;52.196;9.904;2022-12-28T15:09:29;1.00;;;0.50;;
13641;SDS011;6894;52.196;9.904;2022-12-28T15:12:05;1.50;;;0.57;;
13641;SDS011;6894;52.196;9.904;2022-12-28T15:14:33;1.77;;;0.80;;
13641;SDS011;6894;52.196;9.904;2022-12-28T15:17:00;1.43;;;0.73;;
13641;SDS011;6894;52.196;9.904;2022-12-28T15:19:27;1.50;;;0.67;;
13641;SDS011;6894;52.196;9.904;2022-12-28T15:21:53;1.50;;;0.90;;
13641;SDS011;6894;52.196;9.904;2022-12-28T15:24:21;0.97;;;0.50;;
13641;SDS011;6894;52.196;9.904;2022-12-28T15:26:48;0.80;;;0.60;;
13641;SDS011;6894;52.196;9.904;2022-12-28T15:29:15;2.27;;;0.70;;
13641;SDS011;6894;52.196;9.904;2022-12-28T15:31:42;1.47;;;0.80;;
13641;SDS011;6894;52.196;9.904;2022-12-28T15:34:08;1.57;;;1.00;;
13641;SDS011;6894;52.196;9.904;2022-12-28T15:36:35;2.60;;;1.47;;
13641;SDS011;6894;52.196;9.904;2022-12-28T15:39:02;1.97;;;0.97;;
13641;SDS011;6894;52.196;9.904;2022-12-28T15:41:30;0.70;;;0.70;;